createdAt,value
2018-03-26T04:45:29.152Z,1004.05
2018-03-26T04:46:12.697Z,1004.07
2018-03-26T04:46:53.096Z,1004.08
2018-03-26T04:47:33.552Z,1004.09
2018-03-26T04:48:13.979Z,1004.09
2018-03-26T04:48:54.308Z,1004.06
2018-03-26T04:49:34.764Z,1004.07
2018-03-26T04:50:16.500Z,1004.09
2018-03-26T04:50:56.886Z,1004.1
2018-03-26T04:51:37.301Z,1004.11
2018-03-26T04:52:17.715Z,1004.11
2018-03-26T04:52:58.114Z,1004.1
2018-03-26T04:53:38.559Z,1004.1
2018-03-26T04:54:18.946Z,1004.1
2018-03-26T04:54:59.375Z,1004.1
2018-03-26T04:55:39.764Z,1004.16
2018-03-26T04:56:20.181Z,1004.15
2018-03-26T04:57:00.573Z,1004.16
2018-03-26T04:57:40.995Z,1004.16
2018-03-26T04:58:21.399Z,1004.18
2018-03-26T04:59:01.813Z,1004.15
2018-03-26T04:59:42.224Z,1004.13
2018-03-26T05:00:22.617Z,1004.17
2018-03-26T05:01:03.047Z,1004.19
2018-03-26T05:01:43.786Z,1004.18
2018-03-26T05:02:24.010Z,1004.17
2018-03-26T05:03:04.395Z,1004.2
2018-03-26T05:03:44.802Z,1004.19
2018-03-26T05:04:25.147Z,1004.18
2018-03-26T05:05:05.606Z,1004.18
2018-03-26T05:05:46.061Z,1004.18
2018-03-26T05:06:26.424Z,1004.18
2018-03-26T05:07:06.840Z,1004.21
2018-03-26T05:07:47.221Z,1004.18
2018-03-26T05:08:27.614Z,1004.22
2018-03-26T05:09:07.997Z,1004.23
2018-03-26T05:09:48.417Z,1004.21
2018-03-26T05:10:28.787Z,1004.23
2018-03-26T05:11:09.481Z,1004.24
2018-03-26T05:11:49.723Z,1004.24
2018-03-26T05:12:30.183Z,1004.27
2018-03-26T05:13:10.538Z,1004.25
2018-03-26T05:13:50.963Z,1004.27
2018-03-26T05:14:31.401Z,1004.27
2018-03-26T05:15:11.779Z,1004.29
2018-03-26T05:15:52.173Z,1004.32
2018-03-26T05:16:32.582Z,1004.3
2018-03-26T05:17:13.028Z,1004.27
2018-03-26T05:17:53.554Z,1004.28
2018-03-26T05:18:33.995Z,1004.29
2018-03-26T05:19:14.441Z,1004.29
2018-03-26T05:19:54.797Z,1004.32
2018-03-26T05:20:35.200Z,1004.33
2018-03-26T05:21:15.577Z,1004.37
2018-03-26T05:21:55.960Z,1004.37
2018-03-26T05:22:36.371Z,1004.38
2018-03-26T05:23:16.834Z,1004.38
2018-03-26T05:23:57.297Z,1004.41
2018-03-26T05:24:37.591Z,1004.38
2018-03-26T05:25:17.977Z,1004.43
2018-03-26T05:25:58.409Z,1004.46
2018-03-26T05:26:38.886Z,1004.47
2018-03-26T05:27:19.332Z,1004.47
2018-03-26T05:27:59.753Z,1004.46
2018-03-26T05:28:40.162Z,1004.52
2018-03-26T05:29:20.578Z,1004.5
2018-03-26T05:30:01.023Z,1004.51
2018-03-26T05:30:41.403Z,1004.53
2018-03-26T05:31:21.765Z,1004.53
2018-03-26T05:32:02.240Z,1004.52
2018-03-26T05:32:42.610Z,1004.54
2018-03-26T05:33:23.216Z,1004.52
2018-03-26T05:34:03.409Z,1004.56
2018-03-26T05:34:43.901Z,1004.56
2018-03-26T05:35:24.203Z,1004.59
2018-03-26T05:36:04.967Z,1004.62
2018-03-26T05:36:45.330Z,1004.64
2018-03-26T05:37:25.701Z,1004.64
2018-03-26T05:38:06.142Z,1004.62
2018-03-26T05:38:46.468Z,1004.61
2018-03-26T05:39:26.844Z,1004.66
2018-03-26T05:40:07.824Z,1004.68
2018-03-26T05:40:48.044Z,1004.66
2018-03-26T05:41:29.568Z,1004.67
2018-03-26T05:42:09.982Z,1004.74
2018-03-26T05:42:50.325Z,1004.8
2018-03-26T05:43:30.748Z,1004.79
2018-03-26T05:44:11.306Z,1004.81
2018-03-26T05:44:51.630Z,1004.84
2018-03-26T05:45:32.062Z,1004.78
2018-03-26T05:46:12.509Z,1004.79
2018-03-26T05:46:52.944Z,1004.79
2018-03-26T05:47:33.317Z,1004.84
2018-03-26T05:48:13.950Z,1004.82
2018-03-26T05:48:54.230Z,1004.8
2018-03-26T05:49:34.671Z,1004.82
2018-03-26T05:50:16.285Z,1004.83
2018-03-26T05:50:56.701Z,1004.8
2018-03-26T05:51:37.097Z,1004.83
2018-03-26T05:52:17.525Z,1004.81
2018-03-26T05:52:58.431Z,1004.82
2018-03-26T05:53:38.753Z,1004.86
2018-03-26T05:54:19.181Z,1004.83
2018-03-26T05:54:59.607Z,1004.86
2018-03-26T05:55:40.310Z,1004.85
2018-03-26T05:56:21.091Z,1004.82
2018-03-26T05:57:01.285Z,1004.83
2018-03-26T05:57:41.733Z,1004.85
2018-03-26T05:58:22.243Z,1004.85
2018-03-26T05:59:02.709Z,1004.87
2018-03-26T05:59:43.090Z,1004.87
2018-03-26T06:00:23.593Z,1004.88
2018-03-26T06:01:04.087Z,1004.89
2018-03-26T06:01:44.493Z,1004.88
2018-03-26T06:02:25.368Z,1004.87
2018-03-26T06:03:05.801Z,1004.88
2018-03-26T06:03:46.242Z,1004.92
2018-03-26T06:04:26.804Z,1004.89
2018-03-26T06:05:07.077Z,1004.9
2018-03-26T06:05:50.939Z,1004.9
2018-03-26T06:06:31.340Z,1004.94
2018-03-26T06:07:11.776Z,1004.96
2018-03-26T06:07:52.171Z,1004.95
2018-03-26T06:08:32.569Z,1004.95
2018-03-26T06:09:12.901Z,1004.93
2018-03-26T06:09:53.336Z,1004.99
2018-03-26T06:10:33.735Z,1005.01
2018-03-26T06:11:14.177Z,1005
2018-03-26T06:11:54.648Z,1004.99
2018-03-26T06:12:35.169Z,1005.01
2018-03-26T06:15:01.241Z,1005.03
2018-03-26T06:15:41.834Z,1005.07
2018-03-26T06:16:22.265Z,1005.07
2018-03-26T06:17:02.686Z,1005.09
2018-03-26T06:17:43.133Z,1005.13
2018-03-26T06:18:23.496Z,1005.1
2018-03-26T06:19:03.971Z,1005.1
2018-03-26T06:19:44.430Z,1005.11
2018-03-26T06:20:24.778Z,1005.18
2018-03-26T06:21:05.259Z,1005.25
2018-03-26T06:21:45.719Z,1005.18
2018-03-26T06:24:19.257Z,1005.27
2018-03-26T06:24:59.688Z,1005.29
2018-03-26T06:25:40.131Z,1005.29
2018-03-26T06:26:20.819Z,1005.3
2018-03-26T06:27:01.278Z,1005.28
2018-03-26T06:30:29.884Z,1005.35
2018-03-26T06:33:07.277Z,1005.38
2018-03-26T06:43:10.148Z,1005.48
2018-03-26T06:47:25.527Z,1005.56
2018-03-26T06:51:19.241Z,1005.56
2018-03-26T06:52:04.490Z,1005.52
2018-03-26T06:52:54.911Z,1005.53
2018-03-26T06:53:35.342Z,1005.55
2018-03-26T06:54:31.038Z,1005.6
2018-03-26T06:55:26.755Z,1005.63
2018-03-26T06:57:25.975Z,1005.64
2018-03-26T06:58:13.046Z,1005.56
2018-03-26T06:59:13.685Z,1005.42
2018-03-26T07:00:12.695Z,1005.66
2018-03-26T07:00:53.339Z,1005.63
2018-03-26T07:01:34.010Z,1005.69
2018-03-26T07:02:14.721Z,1005.72
2018-03-26T07:03:10.244Z,1005.74
2018-03-26T07:04:12.940Z,1005.76
2018-03-26T07:05:07.605Z,1005.7
2018-03-26T07:09:16.271Z,1005.75
2018-03-26T07:10:11.962Z,1005.75
2018-03-26T07:15:40.592Z,1005.77
2018-03-26T07:16:21.001Z,1005.76
2018-03-26T07:17:16.074Z,1005.8
2018-03-26T07:18:11.367Z,1005.8
2018-03-26T07:19:06.382Z,1005.87
2018-03-26T07:19:46.888Z,1005.83
2018-03-26T07:20:42.200Z,1005.84
2018-03-26T07:22:52.607Z,1005.9
2018-03-26T07:24:46.250Z,1005.89
2018-03-26T07:33:09.537Z,1005.93
2018-03-26T07:34:00.593Z,1005.98
2018-03-26T07:36:30.568Z,1006.01
2018-03-26T07:37:12.625Z,1006
2018-03-26T07:37:52.267Z,1006.05
2018-03-26T07:38:32.713Z,1006.02
2018-03-26T07:39:16.111Z,1006.02
2018-03-26T07:39:56.528Z,1006.06
2018-03-26T07:40:37.018Z,1006.05
2018-03-26T07:41:17.559Z,1006.05
2018-03-26T07:41:58.242Z,1006.06
2018-03-26T07:42:38.499Z,1006.06
2018-03-26T07:43:18.856Z,1006.09
2018-03-26T07:43:59.304Z,1006.09
2018-03-26T07:44:39.954Z,1006.12
2018-03-26T07:45:20.415Z,1006.08
2018-03-26T07:46:00.796Z,1006.08
2018-03-26T07:46:41.275Z,1006.13
2018-03-26T07:47:21.711Z,1006.16
2018-03-26T07:48:02.109Z,1006.18
2018-03-26T07:48:42.483Z,1006.13
2018-03-26T07:49:22.825Z,1006.17
2018-03-26T07:50:03.282Z,1006.12
2018-03-26T07:50:44.170Z,1006.14
2018-03-26T07:51:24.215Z,1006.2
2018-03-26T07:52:05.418Z,1006.21
2018-03-26T07:52:46.010Z,1006.2
2018-03-26T07:53:26.244Z,1006.21
2018-03-26T07:54:06.701Z,1006.17
2018-03-26T07:54:47.849Z,1006.21
2018-03-26T07:55:28.827Z,1006.21
2018-03-26T07:56:10.074Z,1006.24
2018-03-26T07:56:50.744Z,1006.18
2018-03-26T07:57:31.748Z,1006.17
2018-03-26T07:58:12.048Z,1006.21
2018-03-26T07:58:52.464Z,1006.24
2018-03-26T07:59:34.285Z,1006.29
2018-03-26T08:00:14.608Z,1006.28
2018-03-26T08:00:56.508Z,1006.25
2018-03-26T08:01:37.337Z,1006.23
2018-03-26T08:02:18.012Z,1006.28
2018-03-26T08:02:58.924Z,1006.24
2018-03-26T08:03:40.402Z,1006.28
2018-03-26T08:04:20.849Z,1006.29
2018-03-26T08:05:01.345Z,1006.28
2018-03-26T08:05:41.808Z,1006.31
2018-03-26T08:06:22.322Z,1006.3
2018-03-26T08:07:02.679Z,1006.38
2018-03-26T08:07:44.028Z,1006.36
2018-03-26T08:08:24.425Z,1006.32
2018-03-26T08:09:05.049Z,1006.32
2018-03-26T08:09:45.643Z,1006.32
2018-03-26T08:10:26.323Z,1006.29
2018-03-26T08:11:06.688Z,1006.35
2018-03-26T08:11:47.989Z,1006.35
2018-03-26T08:12:28.327Z,1006.34
2018-03-26T08:13:08.756Z,1006.37
2018-03-26T08:13:49.535Z,1006.37
2018-03-26T08:14:29.888Z,1006.33
2018-03-26T08:16:48.824Z,1006.38
2018-03-26T08:17:29.211Z,1006.43
2018-03-26T08:18:09.509Z,1006.38
2018-03-26T08:18:49.938Z,1006.42
2018-03-26T08:19:30.290Z,1006.43
2018-03-26T08:20:10.704Z,1006.42
2018-03-26T08:20:51.123Z,1006.43
2018-03-26T08:21:31.595Z,1006.41
2018-03-26T08:22:11.995Z,1006.42
2018-03-26T08:22:52.416Z,1006.41
2018-03-26T08:23:32.867Z,1006.41
2018-03-26T08:24:13.238Z,1006.41
2018-03-26T08:24:53.675Z,1006.46
2018-03-26T08:25:34.104Z,1006.41
2018-03-26T08:26:14.539Z,1006.46
2018-03-26T08:26:54.949Z,1006.46
2018-03-26T08:27:35.325Z,1006.47
2018-03-26T08:28:15.753Z,1006.49
2018-03-26T08:28:56.162Z,1006.44
2018-03-26T08:29:36.575Z,1006.51
2018-03-26T08:30:16.996Z,1006.54
2018-03-26T08:30:57.407Z,1006.55
2018-03-26T08:31:37.789Z,1006.54
2018-03-26T08:32:18.288Z,1006.54
2018-03-26T08:32:58.736Z,1006.51
2018-03-26T08:33:39.217Z,1006.53
2018-03-26T08:34:19.705Z,1006.52
2018-03-26T08:35:00.119Z,1006.54
2018-03-26T08:35:40.573Z,1006.53
2018-03-26T08:36:20.921Z,1006.58
2018-03-26T08:37:01.435Z,1006.56
2018-03-26T08:37:41.900Z,1006.55
2018-03-26T08:38:22.324Z,1006.57
2018-03-26T08:39:02.769Z,1006.62
2018-03-26T08:39:43.162Z,1006.59
2018-03-26T08:40:23.587Z,1006.58
2018-03-26T08:41:04.030Z,1006.58
2018-03-26T08:41:44.456Z,1006.61
2018-03-26T08:42:24.926Z,1006.61
2018-03-26T08:43:05.259Z,1006.63
2018-03-26T08:43:45.692Z,1006.65
2018-03-26T08:44:26.162Z,1006.61
2018-03-26T08:45:06.630Z,1006.61
2018-03-26T08:45:47.072Z,1006.66
2018-03-26T08:46:27.446Z,1006.62
2018-03-26T08:47:07.872Z,1006.61
2018-03-26T08:47:48.351Z,1006.61
2018-03-26T08:48:28.763Z,1006.62
2018-03-26T08:49:09.196Z,1006.62
2018-03-26T08:49:49.711Z,1006.61
2018-03-26T08:50:30.242Z,1006.65
2018-03-26T08:51:10.634Z,1006.65
2018-03-26T08:51:51.040Z,1006.66
2018-03-26T08:52:31.528Z,1006.69
2018-03-26T08:53:11.916Z,1006.66
2018-03-26T08:53:52.361Z,1006.64
2018-03-26T08:54:32.768Z,1006.69
2018-03-26T08:55:13.166Z,1006.69
2018-03-26T08:55:53.561Z,1006.67
2018-03-26T08:56:35.000Z,1006.7
2018-03-26T08:57:15.673Z,1006.71
2018-03-26T08:57:56.230Z,1006.68
2018-03-26T08:58:36.649Z,1006.69
2018-03-26T08:59:17.630Z,1006.72
2018-03-26T08:59:57.675Z,1006.67
2018-03-26T09:00:38.359Z,1006.67
2018-03-26T09:01:18.742Z,1006.69
2018-03-26T09:01:59.191Z,1006.7
2018-03-26T09:02:39.596Z,1006.69
2018-03-26T09:03:20.005Z,1006.69
2018-03-26T09:04:00.451Z,1006.72
2018-03-26T09:04:40.849Z,1006.67
2018-03-26T09:07:01.189Z,1006.75
2018-03-26T09:09:56.645Z,1006.73
2018-03-26T09:10:36.647Z,1006.73
2018-03-26T09:11:17.848Z,1006.62
2018-03-26T09:11:58.646Z,1006.66
2018-03-26T09:12:39.087Z,1006.67
2018-03-26T09:13:20.227Z,1006.71
2018-03-26T09:14:01.406Z,1006.7
2018-03-26T09:14:41.747Z,1006.72
2018-03-26T09:15:22.276Z,1006.75
2018-03-26T09:16:02.814Z,1006.76
2018-03-26T09:16:43.618Z,1006.73
2018-03-26T09:17:24.120Z,1006.76
2018-03-26T09:18:05.425Z,1006.79
2018-03-26T09:21:06.840Z,1006.75
2018-03-26T09:21:48.506Z,1006.73
2018-03-26T09:22:29.048Z,1006.74
2018-03-26T09:23:09.290Z,1006.72
2018-03-26T09:23:49.897Z,1006.74
2018-03-26T09:24:31.537Z,1006.69
2018-03-26T09:26:28.733Z,1006.74
2018-03-26T09:27:09.449Z,1006.74
2018-03-26T09:27:50.282Z,1006.74
2018-03-26T09:28:31.114Z,1006.74
2018-03-26T09:29:11.267Z,1006.71
2018-03-26T09:29:53.044Z,1006.68
2018-03-26T09:30:33.052Z,1006.7
2018-03-26T09:31:13.653Z,1006.68
2018-03-26T09:31:54.139Z,1006.7
2018-03-26T09:32:34.972Z,1006.75
2018-03-26T09:33:16.661Z,1006.7
2018-03-26T09:33:57.559Z,1006.73
2018-03-26T09:34:38.515Z,1006.72
2018-03-26T09:35:20.075Z,1006.71
2018-03-26T09:35:59.805Z,1006.7
2018-03-26T09:36:41.556Z,1006.74
2018-03-26T09:37:22.227Z,1006.71
2018-03-26T09:38:02.097Z,1006.7
2018-03-26T09:38:42.886Z,1006.7
2018-03-26T09:39:39.810Z,1006.68
2018-03-26T09:40:22.156Z,1006.68
2018-03-26T09:41:07.565Z,1006.69
2018-03-26T09:42:22.077Z,1006.69
2018-03-26T09:43:06.650Z,1006.69
2018-03-26T09:44:04.070Z,1006.71
2018-03-26T09:44:44.681Z,1006.69
2018-03-26T09:45:25.296Z,1006.74
2018-03-26T09:46:05.845Z,1006.66
2018-03-26T09:46:47.096Z,1006.75
2018-03-26T09:47:27.534Z,1006.75
2018-03-26T09:48:07.708Z,1006.78
2018-03-26T09:48:48.446Z,1006.77
2018-03-26T09:49:29.032Z,1006.77
2018-03-26T09:50:09.994Z,1006.75
2018-03-26T09:50:50.594Z,1006.79
2018-03-26T09:51:31.174Z,1006.76
2018-03-26T09:52:11.634Z,1006.76
2018-03-26T09:52:52.005Z,1006.75
2018-03-26T09:53:32.490Z,1006.72
2018-03-26T09:54:12.863Z,1006.73
2018-03-26T09:54:53.334Z,1006.76
2018-03-26T09:55:33.819Z,1006.77
2018-03-26T09:56:14.257Z,1006.77
2018-03-26T09:56:54.761Z,1006.77
2018-03-26T09:57:35.168Z,1006.73
2018-03-26T09:58:15.866Z,1006.77
2018-03-26T09:58:56.320Z,1006.75
2018-03-26T09:59:36.755Z,1006.76
2018-03-26T10:00:17.128Z,1006.76
2018-03-26T10:00:57.892Z,1006.78
2018-03-26T10:01:37.987Z,1006.77
2018-03-26T10:02:18.420Z,1006.78
2018-03-26T10:02:58.878Z,1006.75
2018-03-26T10:03:39.266Z,1006.77
2018-03-26T10:04:20.580Z,1006.72
2018-03-26T10:05:01.910Z,1006.73
2018-03-26T10:05:41.911Z,1006.73
2018-03-26T10:06:22.913Z,1006.75
2018-03-26T10:07:03.165Z,1006.77
2018-03-26T10:07:44.030Z,1006.78
2018-03-26T10:08:24.454Z,1006.75
2018-03-26T10:46:17.226Z,1006.81
2018-03-26T10:46:57.856Z,1006.81
2018-03-26T10:47:38.288Z,1006.78
2018-03-26T10:48:18.723Z,1006.7
2018-03-26T10:48:59.164Z,1006.72
2018-03-26T10:49:39.622Z,1006.72
2018-03-26T10:50:21.845Z,1006.77
2018-03-26T10:51:02.397Z,1006.75
2018-03-26T10:51:42.293Z,1006.73
2018-03-26T10:52:22.764Z,1006.78
2018-03-26T10:53:03.358Z,1006.8
2018-03-26T10:53:44.852Z,1006.79
2018-03-26T10:54:25.331Z,1006.81
2018-03-26T10:55:05.284Z,1006.8
2018-03-26T10:55:46.127Z,1006.81
2018-03-26T10:56:26.709Z,1006.8
2018-03-26T10:57:07.145Z,1006.82
2018-03-26T10:57:47.635Z,1006.75
2018-03-26T10:58:28.147Z,1006.73
2018-03-26T10:59:08.720Z,1006.76
2018-03-26T10:59:49.378Z,1006.77
2018-03-26T11:00:29.809Z,1006.72
2018-03-26T11:01:10.244Z,1006.77
2018-03-26T11:01:50.650Z,1006.77
2018-03-26T11:02:31.212Z,1006.72
2018-03-26T11:03:11.675Z,1006.7
2018-03-26T11:03:52.017Z,1006.73
2018-03-26T11:04:32.482Z,1006.78
2018-03-26T11:05:13.053Z,1006.75
2018-03-26T11:05:53.368Z,1006.74
2018-03-26T11:06:33.756Z,1006.75
2018-03-26T11:07:14.185Z,1006.78
2018-03-26T11:07:54.651Z,1006.77
2018-03-26T11:08:35.408Z,1006.72
2018-03-26T11:09:16.165Z,1006.72
2018-03-26T11:09:56.893Z,1006.8
2018-03-26T11:10:37.287Z,1006.78
2018-03-26T11:11:17.715Z,1006.79
2018-03-26T11:11:58.241Z,1006.81
2018-03-26T11:12:38.719Z,1006.85
2018-03-26T11:13:19.067Z,1006.81
2018-03-26T11:14:06.224Z,1006.79
2018-03-26T11:14:46.618Z,1006.81
2018-03-26T11:15:27.030Z,1006.82
2018-03-26T11:16:07.458Z,1006.83
2018-03-26T11:16:47.882Z,1006.84
2018-03-26T11:17:28.297Z,1006.86
2018-03-26T11:18:08.678Z,1006.82
2018-03-26T11:18:49.119Z,1006.86
2018-03-26T11:19:29.567Z,1006.82
2018-03-26T11:20:10.009Z,1006.84
2018-03-26T11:20:50.436Z,1006.83
2018-03-26T11:21:30.881Z,1006.83
2018-03-26T11:22:11.322Z,1006.86
2018-03-26T11:22:51.816Z,1006.84
2018-03-26T11:23:32.222Z,1006.75
2018-03-26T11:24:12.673Z,1006.85
2018-03-26T11:24:53.107Z,1006.85
2018-03-26T11:25:33.524Z,1006.79
2018-03-26T11:26:13.963Z,1006.88
2018-03-26T11:26:54.364Z,1006.78
2018-03-26T11:27:34.819Z,1006.85
2018-03-26T11:28:15.290Z,1006.87
2018-03-26T11:28:55.635Z,1006.85
2018-03-26T11:29:36.156Z,1006.84
2018-03-26T11:30:16.552Z,1006.84
2018-03-26T11:30:56.911Z,1006.79
2018-03-26T11:31:37.367Z,1006.8
2018-03-26T11:32:17.795Z,1006.73
2018-03-26T11:32:58.226Z,1006.72
2018-03-26T11:33:38.701Z,1006.82
2018-03-26T11:34:19.472Z,1006.75
2018-03-26T11:34:59.923Z,1006.75
2018-03-26T11:35:40.362Z,1006.74
2018-03-26T11:36:20.815Z,1006.7
2018-03-26T11:37:01.250Z,1006.75
2018-03-26T11:37:41.641Z,1006.71
2018-03-26T11:38:22.405Z,1006.75
2018-03-26T11:39:02.824Z,1006.71
2018-03-26T11:39:43.258Z,1006.72
2018-03-26T11:40:23.671Z,1006.68
2018-03-26T11:41:04.411Z,1006.7
2018-03-26T11:41:44.605Z,1006.72
2018-03-26T11:42:26.041Z,1006.77
2018-03-26T11:43:06.695Z,1006.7
2018-03-26T11:43:48.207Z,1006.76
2018-03-26T11:44:28.964Z,1006.75
2018-03-26T11:45:09.467Z,1006.73
2018-03-26T11:45:50.895Z,1006.78
2018-03-26T11:46:31.971Z,1006.76
2018-03-26T11:47:12.874Z,1006.75
2018-03-26T11:47:54.546Z,1006.76
2018-03-26T11:50:38.548Z,1006.74
2018-03-26T11:51:20.075Z,1006.76
2018-03-26T11:52:00.482Z,1006.74
2018-03-26T11:52:41.614Z,1006.72
2018-03-26T11:53:22.534Z,1006.71
2018-03-26T11:54:04.514Z,1006.71
2018-03-26T11:54:44.112Z,1006.68
2018-03-26T11:55:26.079Z,1006.67
2018-03-26T11:56:08.155Z,1006.72
2018-03-26T11:56:48.234Z,1006.67
2018-03-26T11:57:29.258Z,1006.64
2018-03-26T11:58:10.207Z,1006.69
2018-03-26T11:58:51.121Z,1006.64
2018-03-26T11:59:32.387Z,1006.7
2018-03-26T12:00:13.593Z,1006.7
2018-03-26T12:00:54.282Z,1006.71
2018-03-26T12:01:35.681Z,1006.73
2018-03-26T12:02:16.468Z,1006.71
2018-03-26T12:02:58.900Z,1006.56
2018-03-26T12:03:41.726Z,1006.64
2018-03-26T12:04:26.130Z,1006.7
2018-03-26T12:05:06.784Z,1006.72
2018-03-26T12:05:47.597Z,1006.69
2018-03-26T12:06:28.142Z,1006.63
2018-03-26T12:07:11.177Z,1006.66
2018-03-26T12:07:51.573Z,1006.63
2018-03-26T12:08:33.774Z,1006.61
2018-03-26T12:09:15.073Z,1006.6
2018-03-26T12:09:58.886Z,1006.63
2018-03-26T12:10:39.132Z,1006.63
2018-03-26T12:11:20.677Z,1006.64
2018-03-26T12:12:00.481Z,1006.66
2018-03-26T12:12:41.237Z,1006.66
2018-03-26T12:13:22.716Z,1006.64
2018-03-26T12:18:32.717Z,1006.73
2018-03-26T12:19:13.240Z,1006.72
2018-03-26T12:19:53.684Z,1006.69
2018-03-26T12:20:35.408Z,1006.69
2018-03-26T12:21:16.012Z,1006.71
2018-03-26T12:21:57.267Z,1006.69
2018-03-26T12:22:37.422Z,1006.68
2018-03-26T12:23:18.219Z,1006.66
2018-03-26T12:23:59.281Z,1006.65
2018-03-26T12:24:40.279Z,1006.63
2018-03-26T12:25:21.485Z,1006.64
2018-03-26T12:26:01.511Z,1006.68
2018-03-26T12:26:41.924Z,1006.68
2018-03-26T12:27:23.312Z,1006.73
2018-03-26T12:28:04.042Z,1006.69
2018-03-26T12:28:45.425Z,1006.75
2018-03-26T12:29:28.283Z,1006.73
2018-03-26T12:30:08.696Z,1006.74
2018-03-26T12:30:49.997Z,1006.73
2018-03-26T12:31:30.679Z,1006.7
2018-03-26T12:32:12.332Z,1006.71
2018-03-26T12:32:54.767Z,1006.72
2018-03-26T12:33:35.751Z,1006.69
2018-03-26T12:34:17.279Z,1006.68
2018-03-26T12:34:57.885Z,1006.65
2018-03-26T12:35:39.050Z,1006.68
2018-03-26T12:36:19.538Z,1006.67
2018-03-26T12:37:01.741Z,1006.63
2018-03-26T12:37:42.601Z,1006.67
2018-03-26T12:38:22.632Z,1006.65
2018-03-26T12:39:03.074Z,1006.66
2018-03-26T12:39:43.666Z,1006.74
2018-03-26T12:40:24.716Z,1006.66
2018-03-26T12:41:06.034Z,1006.73
2018-03-26T12:41:47.288Z,1006.71
2018-03-26T12:42:28.112Z,1006.69
2018-03-26T12:43:10.396Z,1006.66
2018-03-26T12:43:50.683Z,1006.72
2018-03-26T12:44:31.979Z,1006.68
2018-03-26T12:45:12.854Z,1006.7
2018-03-26T12:45:52.928Z,1006.71
2018-03-26T12:46:33.784Z,1006.56
2018-03-26T12:47:15.304Z,1006.66
2018-03-26T12:47:55.960Z,1006.73
2018-03-26T12:48:37.462Z,1006.71
2018-03-26T12:49:18.666Z,1006.7
2018-03-26T12:49:59.427Z,1006.73
2018-03-26T12:50:42.299Z,1006.72
2018-03-26T12:51:22.562Z,1006.73
2018-03-26T12:52:03.661Z,1006.7
2018-03-26T12:52:44.994Z,1006.71
2018-03-26T12:59:28.885Z,1006.72
2018-03-26T13:03:28.237Z,1006.68
2018-03-26T13:08:52.300Z,1006.67
2018-03-26T13:11:57.088Z,1006.69
2018-03-26T13:12:36.156Z,1006.65
2018-03-26T13:13:16.964Z,1006.63
2018-03-26T13:13:57.484Z,1006.57
2018-03-26T13:14:38.855Z,1006.61
2018-03-26T13:15:19.749Z,1006.62
2018-03-26T13:16:00.448Z,1006.59
2018-03-26T13:16:40.905Z,1006.6
2018-03-26T13:17:22.214Z,1006.6
2018-03-26T13:18:02.678Z,1006.65
2018-03-26T13:18:44.526Z,1006.62
2018-03-26T13:19:24.777Z,1006.61
2018-03-26T13:20:05.284Z,1006.62
2018-03-26T13:20:45.667Z,1006.6
2018-03-26T13:21:26.257Z,1006.59
2018-03-26T13:22:06.623Z,1006.57
2018-03-26T13:22:46.984Z,1006.58
2018-03-26T13:23:27.823Z,1006.48
2018-03-26T13:24:08.944Z,1006.56
2018-03-26T13:24:50.427Z,1006.63
2018-03-26T13:25:30.289Z,1006.6
2018-03-26T13:26:10.657Z,1006.61
2018-03-26T13:26:51.473Z,1006.6
2018-03-26T13:27:32.879Z,1006.54
2018-03-26T13:28:14.677Z,1006.55
2018-03-26T13:28:55.250Z,1006.59
2018-03-26T13:29:35.573Z,1006.6
2018-03-26T13:30:17.958Z,1006.63
2018-03-26T13:30:59.502Z,1006.6
2018-03-26T13:31:40.930Z,1006.65
2018-03-26T13:32:22.038Z,1006.64
2018-03-26T13:33:02.857Z,1006.63
2018-03-26T13:33:43.630Z,1006.6
2018-03-26T13:34:24.707Z,1006.66
2018-03-26T13:35:06.758Z,1006.64
2018-03-26T13:35:47.825Z,1006.68
2018-03-26T13:36:27.739Z,1006.66
2018-03-26T13:37:10.136Z,1006.62
2018-03-26T13:37:51.113Z,1006.67
2018-03-26T13:38:32.099Z,1006.58
2018-03-26T13:39:12.705Z,1006.59
2018-03-26T13:39:53.349Z,1006.63
2018-03-26T13:40:34.028Z,1006.64
2018-03-26T13:41:14.566Z,1006.63
2018-03-26T13:41:55.170Z,1006.67
2018-03-26T13:42:35.534Z,1006.65
2018-03-26T13:43:15.930Z,1006.62
2018-03-26T13:43:56.456Z,1006.63
2018-03-26T13:44:36.856Z,1006.62
2018-03-26T13:45:18.013Z,1006.62
2018-03-26T13:45:57.693Z,1006.59
2018-03-26T13:46:38.354Z,1006.61
2018-03-26T13:47:18.803Z,1006.61
2018-03-26T13:47:59.239Z,1006.63
2018-03-26T13:48:39.632Z,1006.64
2018-03-26T13:49:20.484Z,1006.63
2018-03-26T13:50:00.506Z,1006.67
2018-03-26T13:50:41.318Z,1006.68
2018-03-26T13:51:22.029Z,1006.7
2018-03-26T13:52:02.416Z,1006.67
2018-03-26T13:52:43.783Z,1006.72
2018-03-26T13:53:23.844Z,1006.69
2018-03-26T13:54:04.609Z,1006.65
2018-03-26T13:54:45.820Z,1006.77
2018-03-26T13:55:26.797Z,1006.76
2018-03-26T13:56:07.297Z,1006.73
2018-03-26T13:56:48.275Z,1006.77
2018-03-26T13:57:28.161Z,1006.75
2018-03-26T13:58:08.764Z,1006.73
2018-03-26T13:58:51.368Z,1006.75
2018-03-26T13:59:30.509Z,1006.7
2018-03-26T14:00:11.691Z,1006.74
2018-03-26T14:00:52.298Z,1006.7
2018-03-26T14:01:32.694Z,1006.74
2018-03-26T14:02:13.158Z,1006.73
2018-03-26T14:02:53.621Z,1006.74
2018-03-26T14:03:35.165Z,1006.78
2018-03-26T14:04:15.932Z,1006.77
2018-03-26T14:04:56.376Z,1006.79
2018-03-26T14:05:36.852Z,1006.79
2018-03-26T14:06:17.487Z,1006.77
2018-03-26T14:06:59.413Z,1006.79
2018-03-26T14:07:40.008Z,1006.79
2018-03-26T14:08:20.509Z,1006.77
2018-03-26T14:09:00.958Z,1006.76
2018-03-26T14:09:42.092Z,1006.75
2018-03-26T14:10:22.565Z,1006.72
2018-03-26T14:11:03.179Z,1006.68
2018-03-26T14:11:43.633Z,1006.75
2018-03-26T14:12:24.209Z,1006.73
2018-03-26T14:13:05.130Z,1006.76
2018-03-26T14:13:46.405Z,1006.78
2018-03-26T14:14:27.254Z,1006.81
2018-03-26T14:15:08.000Z,1006.78
2018-03-26T14:15:48.769Z,1006.74
2018-03-26T14:16:29.092Z,1006.79
2018-03-26T14:17:09.719Z,1006.76
2018-03-26T14:17:50.152Z,1006.75
2018-03-26T14:18:32.218Z,1006.78
2018-03-26T14:19:12.688Z,1006.68
2018-03-26T14:19:53.299Z,1006.76
2018-03-26T14:20:33.552Z,1006.73
2018-03-26T14:21:13.978Z,1006.79
2018-03-26T14:21:54.378Z,1006.78
2018-03-26T14:22:35.413Z,1006.8
2018-03-26T14:23:15.937Z,1006.77
2018-03-26T14:23:56.112Z,1006.82
2018-03-26T14:24:37.415Z,1006.81
2018-03-26T14:25:17.820Z,1006.77
2018-03-26T14:25:58.232Z,1006.77
2018-03-26T14:26:39.645Z,1006.81
2018-03-26T14:27:20.261Z,1006.82
2018-03-26T14:28:01.497Z,1006.83
2018-03-26T14:28:42.056Z,1006.81
2018-03-26T14:29:23.152Z,1006.82
2018-03-26T14:30:03.540Z,1006.83
2018-03-26T14:30:44.068Z,1006.79
2018-03-26T14:31:27.421Z,1006.85
2018-03-26T14:32:08.421Z,1006.83
2018-03-26T14:32:48.837Z,1006.78
2018-03-26T14:33:29.406Z,1006.76
2018-03-26T14:34:09.767Z,1006.75
2018-03-26T14:34:50.145Z,1006.73
2018-03-26T14:35:31.262Z,1006.81
2018-03-26T14:37:30.634Z,1006.78
2018-03-26T14:38:10.406Z,1006.75
2018-03-26T14:38:50.820Z,1006.52
2018-03-26T14:39:31.337Z,1006.71
2018-03-26T14:40:12.752Z,1006.73
2018-03-26T14:40:53.173Z,1006.72
2018-03-26T14:41:33.659Z,1006.71
2018-03-26T14:42:14.154Z,1006.78
2018-03-26T14:42:55.392Z,1006.74
2018-03-26T14:43:35.816Z,1006.8
2018-03-26T14:44:16.370Z,1006.73
2018-03-26T14:44:56.891Z,1006.76
2018-03-26T14:45:38.004Z,1006.72
2018-03-26T14:46:18.618Z,1006.73
2018-03-26T14:47:00.168Z,1006.75
2018-03-26T14:47:41.197Z,1006.77
2018-03-26T14:48:21.368Z,1006.78
2018-03-26T14:49:01.765Z,1006.73
2018-03-26T14:49:43.376Z,1006.76
2018-03-26T14:50:23.883Z,1006.76
2018-03-26T14:51:04.214Z,1006.76
2018-03-26T14:51:45.102Z,1006.75
2018-03-26T14:52:27.298Z,1006.74
2018-03-26T14:53:07.780Z,1006.73
2018-03-26T14:53:48.108Z,1006.71
2018-03-26T14:54:28.432Z,1006.75
2018-03-26T14:55:08.888Z,1006.76
2018-03-26T14:55:49.224Z,1006.74
2018-03-26T14:56:29.682Z,1006.75
2018-03-26T14:57:10.120Z,1006.78
2018-03-26T14:57:50.483Z,1006.77
2018-03-26T14:58:30.901Z,1006.77
2018-03-26T14:59:11.336Z,1006.72
2018-03-26T14:59:52.439Z,1006.74
2018-03-26T15:00:32.789Z,1006.82